Time;durP1;ratioP1;P1;durP2;ratioP2;P2;SDS_P1;SDS_P2;PMS_P1;PMS_P2;Temp;Humidity;BMP_temperature;BMP_pressure;BME280_temperature;BME280_humidity;BME280_pressure;Samples;Min_cycle;Max_cycle;Signal;HPM_P1;HPM_P2
2022/08/19 00:00:59;;;;;;;3.5;3.2;;;;;;;;;;;;;
2022/08/19 00:03:24;;;;;;;3.6;3.2;;;;;;;;;;;;;
2022/08/19 00:05:51;;;;;;;3.5;2.9;;;;;;;;;;;;;
2022/08/19 00:08:16;;;;;;;3.1;2.8;;;;;;;;;;;;;
2022/08/19 00:10:42;;;;;;;3.4;3.1;;;;;;;;;;;;;
2022/08/19 00:13:07;;;;;;;3.2;2.6;;;;;;;;;;;;;
2022/08/19 00:15:35;;;;;;;3.4;3.1;;;;;;;;;;;;;
2022/08/19 00:18:00;;;;;;;3.4;3.1;;;;;;;;;;;;;
2022/08/19 00:20:25;;;;;;;3.1;2.8;;;;;;;;;;;;;
2022/08/19 00:22:51;;;;;;;4.1;3;;;;;;;;;;;;;
2022/08/19 00:25:18;;;;;;;3;2.7;;;;;;;;;;;;;
2022/08/19 00:27:42;;;;;;;3.2;2.9;;;;;;;;;;;;;
2022/08/19 00:30:09;;;;;;;3.5;3.2;;;;;;;;;;;;;
2022/08/19 00:32:34;;;;;;;3.4;3.1;;;;;;;;;;;;;
2022/08/19 00:34:59;;;;;;;5.3;4.2;;;;;;;;;;;;;
2022/08/19 00:37:25;;;;;;;4.6;4.1;;;;;;;;;;;;;
2022/08/19 00:39:52;;;;;;;6.7;4.4;;;;;;;;;;;;;
2022/08/19 00:42:17;;;;;;;4.6;4.2;;;;;;;;;;;;;
2022/08/19 00:44:43;;;;;;;6;4.9;;;;;;;;;;;;;
2022/08/19 00:47:08;;;;;;;5.7;5.1;;;;;;;;;;;;;
2022/08/19 00:49:33;;;;;;;5;4.6;;;;;;;;;;;;;
2022/08/19 00:51:58;;;;;;;5.3;4.8;;;;;;;;;;;;;
2022/08/19 00:54:24;;;;;;;6.1;4.9;;;;;;;;;;;;;
2022/08/19 00:56:48;;;;;;;4.1;3.7;;;;;;;;;;;;;
2022/08/19 00:59:14;;;;;;;4;3.6;;;;;;;;;;;;;
2022/08/19 01:01:39;;;;;;;4;3.6;;;;;;;;;;;;;
2022/08/19 01:04:05;;;;;;;5.5;4.2;;;;;;;;;;;;;
2022/08/19 01:06:32;;;;;;;6;4.2;;;;;;;;;;;;;
2022/08/19 01:08:56;;;;;;;4;3.6;;;;;;;;;;;;;
2022/08/19 01:11:21;;;;;;;4.3;3.9;;;;;;;;;;;;;
2022/08/19 01:13:47;;;;;;;4.4;3.7;;;;;;;;;;;;;
2022/08/19 01:16:12;;;;;;;4.3;3.7;;;;;;;;;;;;;
2022/08/19 01:18:40;;;;;;;3.6;3.2;;;;;;;;;;;;;
2022/08/19 01:21:05;;;;;;;3;2.6;;;;;;;;;;;;;
2022/08/19 01:23:44;;;;;;;3.1;2.8;;;;;;;;;;;;;
2022/08/19 01:25:55;;;;;;;3.1;2.7;;;;;;;;;;;;;
2022/08/19 01:28:21;;;;;;;3.5;2.3;;;;;;;;;;;;;
2022/08/19 01:30:45;;;;;;;2.2;2;;;;;;;;;;;;;
2022/08/19 01:33:12;;;;;;;2.5;2.3;;;;;;;;;;;;;
2022/08/19 01:35:37;;;;;;;2.1;2;;;;;;;;;;;;;
2022/08/19 01:38:07;;;;;;;3.6;2.4;;;;;;;;;;;;;
2022/08/19 01:40:29;;;;;;;2.5;2.3;;;;;;;;;;;;;
2022/08/19 01:42:55;;;;;;;2.5;2.3;;;;;;;;;;;;;
2022/08/19 01:45:20;;;;;;;3.6;2.3;;;;;;;;;;;;;
2022/08/19 01:47:45;;;;;;;2.6;2.4;;;;;;;;;;;;;
2022/08/19 01:50:11;;;;;;;2.5;2.3;;;;;;;;;;;;;
2022/08/19 01:52:37;;;;;;;2.6;2.3;;;;;;;;;;;;;
2022/08/19 01:55:02;;;;;;;2.4;2.2;;;;;;;;;;;;;
2022/08/19 01:57:30;;;;;;;2.2;2;;;;;;;;;;;;;
2022/08/19 01:59:55;;;;;;;3;2.5;;;;;;;;;;;;;
2022/08/19 02:02:21;;;;;;;3.2;2.9;;;;;;;;;;;;;
2022/08/19 02:04:47;;;;;;;4.7;3;;;;;;;;;;;;;
2022/08/19 02:07:13;;;;;;;3.3;3;;;;;;;;;;;;;
2022/08/19 02:09:38;;;;;;;4.2;2.8;;;;;;;;;;;;;
2022/08/19 02:12:03;;;;;;;2.7;2.5;;;;;;;;;;;;;
2022/08/19 02:14:28;;;;;;;3.8;2.6;;;;;;;;;;;;;
2022/08/19 02:16:55;;;;;;;2.6;2.4;;;;;;;;;;;;;
2022/08/19 02:19:20;;;;;;;7.4;4.7;;;;;;;;;;;;;
2022/08/19 02:21:45;;;;;;;6.1;5.5;;;;;;;;;;;;;
2022/08/19 02:24:10;;;;;;;6.9;5.8;;;;;;;;;;;;;
2022/08/19 02:26:36;;;;;;;6.3;5.7;;;;;;;;;;;;;
2022/08/19 02:29:02;;;;;;;7.1;5.6;;;;;;;;;;;;;
2022/08/19 02:31:27;;;;;;;6.1;5.5;;;;;;;;;;;;;
2022/08/19 02:33:52;;;;;;;6.3;5.7;;;;;;;;;;;;;
2022/08/19 02:36:18;;;;;;;6.7;6;;;;;;;;;;;;;
2022/08/19 02:38:43;;;;;;;7.5;5.7;;;;;;;;;;;;;
2022/08/19 02:41:09;;;;;;;6.7;6.1;;;;;;;;;;;;;
2022/08/19 02:43:36;;;;;;;6.7;6;;;;;;;;;;;;;
2022/08/19 02:46:01;;;;;;;7.4;6.1;;;;;;;;;;;;;
2022/08/19 02:48:26;;;;;;;6.7;6;;;;;;;;;;;;;
2022/08/19 02:50:55;;;;;;;6.3;5.7;;;;;;;;;;;;;
2022/08/19 02:53:18;;;;;;;6.4;5.7;;;;;;;;;;;;;
2022/08/19 02:55:45;;;;;;;6.9;6.2;;;;;;;;;;;;;
2022/08/19 02:58:09;;;;;;;6.9;5.7;;;;;;;;;;;;;
2022/08/19 03:00:35;;;;;;;6.9;5.8;;;;;;;;;;;;;
2022/08/19 03:03:00;;;;;;;5.9;5.2;;;;;;;;;;;;;
2022/08/19 03:05:27;;;;;;;6.3;5.7;;;;;;;;;;;;;
2022/08/19 03:07:52;;;;;;;6.5;5.8;;;;;;;;;;;;;
2022/08/19 03:10:22;;;;;;;6.1;5.5;;;;;;;;;;;;;
2022/08/19 03:12:46;;;;;;;5.9;5.3;;;;;;;;;;;;;
2022/08/19 03:15:15;;;;;;;5.6;5.1;;;;;;;;;;;;;
2022/08/19 03:17:39;;;;;;;6.1;5.5;;;;;;;;;;;;;
2022/08/19 03:20:07;;;;;;;6.3;5.5;;;;;;;;;;;;;
2022/08/19 03:22:32;;;;;;;7.1;5.5;;;;;;;;;;;;;
2022/08/19 03:24:58;;;;;;;6.3;5.7;;;;;;;;;;;;;
2022/08/19 03:27:22;;;;;;;5.7;5.2;;;;;;;;;;;;;
2022/08/19 03:29:48;;;;;;;6.5;5.2;;;;;;;;;;;;;
2022/08/19 03:32:13;;;;;;;6.3;5.3;;;;;;;;;;;;;
2022/08/19 03:34:39;;;;;;;6.2;5.6;;;;;;;;;;;;;
2022/08/19 03:37:05;;;;;;;6.4;5.7;;;;;;;;;;;;;
2022/08/19 03:39:30;;;;;;;5.8;4.5;;;;;;;;;;;;;
2022/08/19 03:41:59;;;;;;;6.1;5.4;;;;;;;;;;;;;
2022/08/19 03:44:21;;;;;;;7.1;5.7;;;;;;;;;;;;;
2022/08/19 03:46:47;;;;;;;5.7;5.2;;;;;;;;;;;;;
2022/08/19 03:49:12;;;;;;;6.2;5.2;;;;;;;;;;;;;
2022/08/19 03:51:38;;;;;;;6.1;5.5;;;;;;;;;;;;;
2022/08/19 03:54:03;;;;;;;6.2;5.6;;;;;;;;;;;;;
2022/08/19 03:56:30;;;;;;;6;5.4;;;;;;;;;;;;;
2022/08/19 03:58:55;;;;;;;6.1;5.5;;;;;;;;;;;;;
2022/08/19 04:02:35;;;;;;;7.1;6.2;;;;;;;18.53;97.25195;933.1522;;;;
2022/08/19 04:05:07;;;;;;;7.3;5.9;;;;;;;18.54;97.16992;933.1666;;;;
2022/08/19 04:07:32;;;;;;;7.2;6.1;;;;;;;18.61;96.7793;933.1742;;;;
2022/08/19 04:09:59;;;;;;;8.6;7.1;;;;;;;18.66;96.81445;933.1944;;;;
2022/08/19 04:12:24;;;;;;;7.7;6.8;;;;;;;18.68;96.86719;933.3056;;;;
2022/08/19 04:14:51;;;;;;;8.9;7.6;;;;;;;18.76;96.68457;933.3939;;;;
2022/08/19 04:17:16;;;;;;;7.6;6.7;;;;;;;18.81;96.51074;933.3438;;;;
2022/08/19 04:19:48;;;;;;;7.6;6.8;;;;;;;18.77;97.12891;933.3975;;;;
2022/08/19 04:22:18;;;;;;;7.2;6.5;;;;;;;18.77;97.58301;933.3846;;;;
2022/08/19 04:24:43;;;;;;;8;6.7;;;;;;;18.77;97.74609;933.4637;;;;
2022/08/19 04:27:12;;;;;;;7.3;6.2;;;;;;;18.82;97.4082;933.4777;;;;
2022/08/19 04:29:39;;;;;;;7;6.3;;;;;;;18.88;96.97852;933.485;;;;
2022/08/19 04:32:05;;;;;;;6.9;6.2;;;;;;;18.88;96.53613;933.5309;;;;
2022/08/19 04:34:31;;;;;;;6.3;5.7;;;;;;;18.92;96.15039;933.6522;;;;
2022/08/19 04:37:01;;;;;;;7.4;6;;;;;;;18.95;95.67871;933.6344;;;;
2022/08/19 04:42:38;;;;;;;6.6;5.6;;;;;;;18.97;95.93848;933.7064;;;;
2022/08/19 04:44:21;;;;;;;5.3;4.8;;;;;;;19.07;95.7041;933.6844;;;;
2022/08/19 04:46:47;;;;;;;5.8;5.3;;;;;;;19.12;95.45996;933.6763;;;;
2022/08/19 04:49:16;;;;;;;6.1;5.5;;;;;;;19.08;95.47559;933.6984;;;;
2022/08/19 04:51:45;;;;;;;5.7;5.2;;;;;;;19.1;94.99023;933.68;;;;
2022/08/19 04:54:09;;;;;;;6.4;5.6;;;;;;;19.07;95.32031;933.6675;;;;
2022/08/19 04:59:40;;;;;;;6.9;5.1;;;;;;;19.13;95.25195;933.6671;;;;
2022/08/19 05:02:08;;;;;;;7.1;4.8;;;;;;;19.17;95.25977;933.6965;;;;
2022/08/19 05:04:33;;;;;;;5.5;4.7;;;;;;;19.08;95.15918;933.5526;;;;
2022/08/19 05:06:58;;;;;;;5.6;5.1;;;;;;;19.07;95.51855;933.5245;;;;
2022/08/19 05:09:27;;;;;;;5.2;4.3;;;;;;;19.1;95.33789;933.509;;;;
2022/08/19 05:11:53;;;;;;;5;4.5;;;;;;;19.12;95.16895;933.4487;;;;
2022/08/19 05:14:21;;;;;;;5.7;4.3;;;;;;;19.17;94.73633;933.4786;;;;
2022/08/19 05:16:45;;;;;;;5.7;4.5;;;;;;;19.19;94.33398;933.5588;;;;
2022/08/19 05:24:02;;;;;;;6;4;;;;;;;19.4;92.80566;933.6202;;;;
2022/08/19 05:26:27;;;;;;;4.3;3.9;;;;;;;19.45;91.66113;933.5577;;;;
2022/08/19 05:31:49;;;;;;;4.1;3.7;;;;;;;19.47;91.71191;933.3674;;;;
2022/08/19 05:34:13;;;;;;;5.1;4.5;;;;;;;19.23;91.97559;933.3036;;;;
2022/08/19 05:36:40;;;;;;;5.1;4.4;;;;;;;19.15;92.53125;933.3074;;;;
2022/08/19 05:39:05;;;;;;;5.2;4.3;;;;;;;19.03;93.41504;933.3354;;;;
2022/08/19 05:41:35;;;;;;;4.9;4.2;;;;;;;19.17;94.01367;933.3301;;;;
2022/08/19 05:44:01;;;;;;;4.6;4.1;;;;;;;19.32;93.83691;933.3339;;;;
2022/08/19 05:46:26;;;;;;;7;4.7;;;;;;;19.43;92.64844;933.3467;;;;
2022/08/19 05:48:55;;;;;;;4.7;4.1;;;;;;;19.61;92.06836;933.3837;;;;
2022/08/19 05:51:18;;;;;;;6.6;4.4;;;;;;;19.72;92.1377;933.2932;;;;
2022/08/19 05:53:47;;;;;;;5.9;4.5;;;;;;;19.83;91.78906;933.2953;;;;
2022/08/19 05:56:17;;;;;;;5.6;4.5;;;;;;;19.77;90.98242;933.3052;;;;
2022/08/19 05:58:43;;;;;;;5.2;4.2;;;;;;;19.93;89.9668;933.2814;;;;
2022/08/19 06:01:08;;;;;;;7.4;4.7;;;;;;;20.04;89.87012;933.295;;;;
2022/08/19 06:03:33;;;;;;;7.5;4.5;;;;;;;20.15;89.93848;933.2839;;;;
2022/08/19 06:06:04;;;;;;;4.3;3.9;;;;;;;20.09;90.75586;933.293;;;;
2022/08/19 06:08:36;;;;;;;4.8;4.3;;;;;;;20;91.26465;933.2853;;;;
2022/08/19 06:11:05;;;;;;;5.8;4.2;;;;;;;19.87;92.23926;933.2061;;;;
2022/08/19 06:13:33;;;;;;;5.2;4.7;;;;;;;19.82;92.91602;933.1258;;;;
2022/08/19 06:16:02;;;;;;;4.7;4.2;;;;;;;20.14;91.0918;933.0845;;;;
2022/08/19 06:18:34;;;;;;;4.9;4.1;;;;;;;20.05;90.77344;933.1481;;;;
2022/08/19 06:21:03;;;;;;;4.7;4.3;;;;;;;20.08;91.51465;933.1957;;;;
2022/08/19 06:23:25;;;;;;;5.1;4.2;;;;;;;20.33;89.65039;933.1483;;;;
2022/08/19 06:25:54;;;;;;;4.8;4.4;;;;;;;20.38;89.00586;933.1434;;;;
2022/08/19 06:28:20;;;;;;;5.4;4.7;;;;;;;20.33;88.36621;933.1297;;;;
2022/08/19 06:30:44;;;;;;;5.6;5.1;;;;;;;20.04;89.66211;933.2163;;;;
2022/08/19 06:33:14;;;;;;;5.2;4.5;;;;;;;20.08;89.37695;933.2767;;;;
2022/08/19 06:35:46;;;;;;;5.4;4.6;;;;;;;19.97;89.68164;933.2656;;;;
2022/08/19 06:38:12;;;;;;;5;4.4;;;;;;;19.95;90.37695;933.3448;;;;
2022/08/19 06:40:41;;;;;;;4;3.6;;;;;;;20.08;89.37891;933.4389;;;;
2022/08/19 06:43:06;;;;;;;4.4;4;;;;;;;20.14;88.40918;933.4352;;;;
2022/08/19 06:45:34;;;;;;;4.4;4;;;;;;;20.16;88.08691;933.4984;;;;
2022/08/19 06:47:58;;;;;;;4.7;4.2;;;;;;;20;87.69238;933.4973;;;;
2022/08/19 06:50:24;;;;;;;4.8;4.4;;;;;;;20.08;87.12695;933.5876;;;;
2022/08/19 06:52:49;;;;;;;4.7;4.2;;;;;;;19.94;87.18945;933.6538;;;;
2022/08/19 06:55:17;;;;;;;6.6;4.4;;;;;;;20.04;86.96582;933.6318;;;;
2022/08/19 06:57:47;;;;;;;5.7;4.6;;;;;;;20.15;86.76367;933.6573;;;;
2022/08/19 07:00:13;;;;;;;5.2;4.1;;;;;;;20.2;86.16895;933.6409;;;;
2022/08/19 07:02:41;;;;;;;7.4;4.4;;;;;;;20.14;85.88867;933.6437;;;;
2022/08/19 07:05:06;;;;;;;5.1;4.1;;;;;;;20.06;86.29297;933.5964;;;;
2022/08/19 07:07:37;;;;;;;5.4;4.2;;;;;;;19.86;86.69727;933.6297;;;;
2022/08/19 07:10:03;;;;;;;5.8;4.1;;;;;;;19.73;87.46387;933.5327;;;;
2022/08/19 07:12:29;;;;;;;4.5;4.1;;;;;;;19.7;87.84277;933.5128;;;;
2022/08/19 07:14:55;;;;;;;4.6;3.7;;;;;;;19.77;87.49609;933.4902;;;;
2022/08/19 07:17:26;;;;;;;3.9;3.3;;;;;;;19.66;87.66113;933.5406;;;;
2022/08/19 07:19:51;;;;;;;3.9;3.4;;;;;;;19.68;87.15137;933.6096;;;;
2022/08/19 07:22:20;;;;;;;3.6;3.3;;;;;;;19.59;87.61133;933.6558;;;;
2022/08/19 07:24:42;;;;;;;4;3.6;;;;;;;19.62;87.44434;933.6702;;;;
2022/08/19 07:27:13;;;;;;;3.6;3.3;;;;;;;19.53;87.91406;933.6616;;;;
2022/08/19 07:29:42;;;;;;;3.7;3.4;;;;;;;19.42;88.26563;933.6375;;;;
2022/08/19 07:32:08;;;;;;;4.1;3.5;;;;;;;19.35;88.96094;933.7244;;;;
2022/08/19 07:34:36;;;;;;;3.7;3.3;;;;;;;19.41;88.77637;933.7394;;;;
2022/08/19 07:37:03;;;;;;;4.4;3.5;;;;;;;19.35;89.1709;933.7316;;;;
2022/08/19 07:39:31;;;;;;;4.6;3.9;;;;;;;19.28;89.6709;933.6949;;;;
2022/08/19 07:41:57;;;;;;;3.8;3.4;;;;;;;19.31;89.93262;933.8063;;;;
2022/08/19 07:44:25;;;;;;;4;3.6;;;;;;;19.25;90.60742;933.8074;;;;
2022/08/19 07:46:50;;;;;;;5.9;4.2;;;;;;;19.03;92.08594;933.814;;;;
2022/08/19 07:49:19;;;;;;;3.9;3.6;;;;;;;18.84;93.11816;933.8338;;;;
2022/08/19 07:51:42;;;;;;;5.4;4.3;;;;;;;18.97;92.98438;933.7717;;;;
2022/08/19 07:54:07;;;;;;;4.1;3.6;;;;;;;18.64;95.02832;933.7844;;;;
2022/08/19 07:56:32;;;;;;;7;3.8;;;;;;;18.63;95.23828;933.8289;;;;
2022/08/19 07:59:01;;;;;;;4.4;4;;;;;;;18.67;95.52734;933.8447;;;;
2022/08/19 08:01:26;;;;;;;5.9;4.4;;;;;;;18.77;95.40723;933.8582;;;;
2022/08/19 08:11:10;;;;;;;4;3.7;;;;;;;18.92;94.55566;933.9128;;;;
2022/08/19 08:13:34;;;;;;;5.6;4.4;;;;;;;18.94;94.64063;933.8719;;;;
2022/08/19 08:16:06;;;;;;;4.1;3.7;;;;;;;19.01;93.87695;933.882;;;;
2022/08/19 08:18:41;;;;;;;4.6;4.2;;;;;;;18.9;94.65625;933.9328;;;;
2022/08/19 08:20:59;;;;;;;6.7;4.6;;;;;;;18.99;94.76758;933.973;;;;
2022/08/19 08:23:29;;;;;;;5.3;4.5;;;;;;;18.95;95.13184;933.9942;;;;
2022/08/19 08:25:52;;;;;;;5.8;4.5;;;;;;;18.96;94.44727;933.9989;;;;
2022/08/19 08:28:18;;;;;;;4.8;4.1;;;;;;;18.81;95.70801;934.0159;;;;
2022/08/19 08:30:45;;;;;;;6.4;4.7;;;;;;;18.85;95.9248;934.0044;;;;
2022/08/19 08:33:15;;;;;;;4.8;4.3;;;;;;;18.89;96.41016;934.051;;;;
2022/08/19 08:35:45;;;;;;;5.2;4.6;;;;;;;18.98;96.08301;934.0457;;;;
2022/08/19 08:38:08;;;;;;;5.5;4.8;;;;;;;19.06;94.71289;934.1197;;;;
2022/08/19 08:40:38;;;;;;;5.3;4.1;;;;;;;19.15;94.79004;934.1379;;;;
2022/08/19 08:43:04;;;;;;;5.1;4.1;;;;;;;19.11;95.23438;934.1392;;;;
2022/08/19 08:45:28;;;;;;;4.8;4.1;;;;;;;19.24;92.87793;934.2145;;;;
2022/08/19 08:47:55;;;;;;;4.5;3.9;;;;;;;19.46;91.95703;934.2581;;;;
2022/08/19 08:50:20;;;;;;;4.5;3.6;;;;;;;19.35;91.1748;934.2693;;;;
2022/08/19 08:52:45;;;;;;;3.8;3.4;;;;;;;19.32;91.99609;934.2598;;;;
2022/08/19 08:55:15;;;;;;;4.4;3.6;;;;;;;19.6;92.74219;934.3065;;;;
2022/08/19 08:57:40;;;;;;;4.2;3.8;;;;;;;19.87;91.65625;934.2502;;;;
2022/08/19 09:00:06;;;;;;;4.3;3.4;;;;;;;20.1;90.49121;934.2814;;;;
2022/08/19 09:02:34;;;;;;;3.8;3.3;;;;;;;20.18;87.97559;934.2907;;;;
2022/08/19 09:04:59;;;;;;;3.8;3.4;;;;;;;20.3;90.12207;934.2274;;;;
2022/08/19 09:07:24;;;;;;;4.7;3.4;;;;;;;20.35;89.05859;934.1575;;;;
2022/08/19 09:09:49;;;;;;;5;3.9;;;;;;;20.42;89.31836;934.2704;;;;
2022/08/19 09:12:14;;;;;;;3.5;3.2;;;;;;;20.74;87.52344;934.2378;;;;
2022/08/19 09:14:41;;;;;;;3.5;3.1;;;;;;;21.13;84.96875;934.2026;;;;
2022/08/19 09:17:07;;;;;;;3.2;2.9;;;;;;;21.47;85.15137;934.2491;;;;
2022/08/19 09:19:29;;;;;;;3.2;2.9;;;;;;;22.12;81.46582;934.2467;;;;
2022/08/19 09:22:00;;;;;;;3.4;2.8;;;;;;;22.49;77.28711;934.2424;;;;
2022/08/19 09:24:24;;;;;;;3.1;2.6;;;;;;;22.16;76.43164;934.2353;;;;
2022/08/19 09:26:52;;;;;;;2.7;2.4;;;;;;;22.65;77.17383;934.2622;;;;
2022/08/19 09:29:22;;;;;;;3.4;2.5;;;;;;;22.93;74.94434;934.2475;;;;
2022/08/19 09:31:47;;;;;;;3.2;2.4;;;;;;;22.99;74.01367;934.2658;;;;
2022/08/19 09:34:12;;;;;;;2.9;2.3;;;;;;;23.02;73.7832;934.3181;;;;
2022/08/19 09:36:40;;;;;;;2.5;2.3;;;;;;;23.1;76.95703;934.2896;;;;
2022/08/19 09:39:05;;;;;;;2.6;2.4;;;;;;;23.11;74.68066;934.3688;;;;
2022/08/19 09:41:34;;;;;;;2.4;2.2;;;;;;;23.32;73.44629;934.3698;;;;
2022/08/19 09:44:03;;;;;;;3.4;2.2;;;;;;;22.98;75.75195;934.3473;;;;
2022/08/19 09:46:30;;;;;;;2.4;2.2;;;;;;;23.5;77.01563;934.3563;;;;
2022/08/19 09:48:56;;;;;;;2.4;2.2;;;;;;;24.03;71.64453;934.3745;;;;
2022/08/19 09:51:21;;;;;;;2.3;2.1;;;;;;;24.45;71.08691;934.2633;;;;
2022/08/19 09:53:50;;;;;;;3.5;2;;;;;;;23.76;71.8125;934.2299;;;;
2022/08/19 09:56:14;;;;;;;1.7;1.6;;;;;;;23.88;73.19727;934.195;;;;
2022/08/19 09:58:45;;;;;;;1.8;1.6;;;;;;;24.45;74.84668;934.3039;;;;
2022/08/19 10:01:16;;;;;;;2;1.6;;;;;;;24.8;68.38281;934.3067;;;;
2022/08/19 10:03:41;;;;;;;1.4;1.3;;;;;;;24.44;70.17773;934.2722;;;;
2022/08/19 10:06:08;;;;;;;1.7;1.4;;;;;;;24.2;70.91797;934.1665;;;;
2022/08/19 10:08:32;;;;;;;1.5;1.4;;;;;;;24.07;70.00293;934.1795;;;;
2022/08/19 10:11:01;;;;;;;1.9;1.6;;;;;;;23.57;72.77051;934.1247;;;;
2022/08/19 10:13:25;;;;;;;1.6;1.5;;;;;;;24.08;70.3916;934.11;;;;
2022/08/19 10:15:54;;;;;;;1.4;1.3;;;;;;;24.55;67.34277;934.1116;;;;
2022/08/19 10:18:22;;;;;;;1.8;1.5;;;;;;;24.37;68.16309;934.1392;;;;
2022/08/19 10:20:47;;;;;;;2;1.5;;;;;;;24.43;67.08887;934.1008;;;;
2022/08/19 10:23:16;;;;;;;1.7;1.6;;;;;;;25.06;68.62402;934.0659;;;;
2022/08/19 10:25:42;;;;;;;1.6;1.3;;;;;;;25.44;66.56738;934.0391;;;;
2022/08/19 10:30:54;;;;;;;1.4;1.3;;;;;;;24.4;65.375;934.0646;;;;
2022/08/19 10:33:19;;;;;;;1.4;1.1;;;;;;;24.19;64.89648;934.0508;;;;
2022/08/19 10:35:47;;;;;;;1.4;1.2;;;;;;;23.93;66.56738;934.0373;;;;
2022/08/19 10:38:12;;;;;;;1.9;1.3;;;;;;;23.88;67.95996;934.0098;;;;
2022/08/19 10:40:39;;;;;;;1.1;1.1;;;;;;;24.63;64.83203;933.9304;;;;
2022/08/19 10:43:05;;;;;;;1.1;1.1;;;;;;;25.09;65.31055;933.9528;;;;
2022/08/19 10:45:30;;;;;;;1.2;1.1;;;;;;;24.47;61.2373;933.9467;;;;
2022/08/19 10:47:55;;;;;;;1.5;1.4;;;;;;;23.7;66.35547;933.9403;;;;
2022/08/19 10:52:51;;;;;;;1.2;1.1;;;;;;;24.99;63.96484;933.8596;;;;
2022/08/19 10:57:49;;;;;;;1.2;1.1;;;;;;;24.96;64.38477;933.8333;;;;
2022/08/19 11:00:14;;;;;;;2;1.2;;;;;;;24.46;67.87109;933.8176;;;;
2022/08/19 11:02:41;;;;;;;1.3;1.2;;;;;;;24.36;66.91406;933.7725;;;;
2022/08/19 11:05:06;;;;;;;1.7;1.3;;;;;;;24.37;67.3623;933.7778;;;;
2022/08/19 11:07:33;;;;;;;1;0.9;;;;;;;24.37;65.12305;933.7064;;;;
2022/08/19 11:09:58;;;;;;;0.7;0.7;;;;;;;25.1;62.97559;933.6703;;;;
2022/08/19 11:12:24;;;;;;;0.6;0.6;;;;;;;26.29;60.97852;933.5945;;;;
2022/08/19 11:17:43;;;;;;;1.4;0.8;;;;;;;25.97;60.82813;933.6024;;;;
2022/08/19 11:20:08;;;;;;;0.6;0.6;;;;;;;25.58;62.03906;933.5742;;;;
2022/08/19 11:22:32;;;;;;;0.7;0.7;;;;;;;24.94;63.24805;933.613;;;;
2022/08/19 11:24:59;;;;;;;0.7;0.7;;;;;;;25.36;62.54102;933.5453;;;;
2022/08/19 11:27:24;;;;;;;0.8;0.8;;;;;;;26.37;60.33984;933.539;;;;
2022/08/19 11:29:49;;;;;;;0.7;0.7;;;;;;;27.81;56.59082;933.5552;;;;
2022/08/19 11:32:16;;;;;;;0.7;0.7;;;;;;;28.32;49.30762;933.5432;;;;
2022/08/19 11:34:41;;;;;;;0.6;0.6;;;;;;;28.32;51.26855;933.5853;;;;
2022/08/19 11:37:10;;;;;;;0.5;0.5;;;;;;;27.13;53.91992;933.5287;;;;
2022/08/19 11:39:36;;;;;;;0.6;0.6;;;;;;;27.36;53.36719;933.4989;;;;
2022/08/19 11:42:54;;;;;;;0.7;0.7;;;;;;;26.52;56.02539;933.4984;;;;
2022/08/19 11:44:30;;;;;;;0.6;0.5;;;;;;;26.92;55.0791;933.4645;;;;
2022/08/19 11:47:00;;;;;;;0.7;0.6;;;;;;;27;54.87598;933.5238;;;;
2022/08/19 11:49:24;;;;;;;1;0.6;;;;;;;27.12;55.94531;933.4911;;;;
2022/08/19 11:51:53;;;;;;;1.1;0.9;;;;;;;26.92;56.42969;933.49;;;;
2022/08/19 11:54:25;;;;;;;1.1;1;;;;;;;27.23;57.46582;933.4817;;;;
2022/08/19 11:56:54;;;;;;;1.5;1.2;;;;;;;27.16;58.03711;933.4895;;;;
2022/08/19 11:59:19;;;;;;;0.8;0.8;;;;;;;27.85;55.24121;933.5433;;;;
2022/08/19 12:01:47;;;;;;;1.3;1.2;;;;;;;27.5;55.49512;933.5164;;;;
2022/08/19 12:04:12;;;;;;;1.1;1;;;;;;;27.42;54.57129;933.5438;;;;
2022/08/19 12:06:38;;;;;;;0.9;0.9;;;;;;;27.72;55.71289;933.5611;;;;
2022/08/19 12:09:07;;;;;;;0.9;0.9;;;;;;;27.03;55.84082;933.5667;;;;
2022/08/19 12:11:31;;;;;;;1.7;1.3;;;;;;;26.29;59.39355;933.6219;;;;
2022/08/19 12:13:56;;;;;;;1.4;1.1;;;;;;;26.85;57.68945;933.5471;;;;
2022/08/19 12:16:23;;;;;;;1;1;;;;;;;26.92;60.28223;933.591;;;;
2022/08/19 12:18:50;;;;;;;1.7;1.1;;;;;;;28.43;56.85938;933.6434;;;;
2022/08/19 12:21:14;;;;;;;1.3;1.2;;;;;;;28.29;55.36621;933.6903;;;;
2022/08/19 12:23:42;;;;;;;1.5;1.4;;;;;;;29.59;54.77539;933.6989;;;;
2022/08/19 12:26:07;;;;;;;1.4;1.3;;;;;;;30.06;51.25293;933.6992;;;;
2022/08/19 12:28:33;;;;;;;1.2;1.1;;;;;;;30.45;50.74805;933.6584;;;;
2022/08/19 12:30:58;;;;;;;1.2;1.2;;;;;;;31.29;48.48438;933.6953;;;;
2022/08/19 12:33:27;;;;;;;1.3;1.2;;;;;;;31.55;49.625;933.6697;;;;
2022/08/19 12:35:50;;;;;;;1.4;1.3;;;;;;;31.7;48.44434;933.7153;;;;
2022/08/19 12:38:18;;;;;;;1.7;1.2;;;;;;;31.47;48.43262;933.717;;;;
2022/08/19 12:40:43;;;;;;;1.4;1.3;;;;;;;31.09;50.14844;933.6948;;;;
2022/08/19 12:43:13;;;;;;;2.4;1.6;;;;;;;30.16;52.60059;933.6739;;;;
2022/08/19 12:50:55;;;;;;;1;1;;;;;;;29.48;53.08301;933.6586;;;;
2022/08/19 12:53:24;;;;;;;1;1;;;;;;;29.46;53.78223;933.6802;;;;
2022/08/19 12:55:49;;;;;;;1.2;1.1;;;;;;;29.72;51.94043;933.6742;;;;
2022/08/19 12:58:17;;;;;;;1.6;1.2;;;;;;;29.81;51.68945;933.6841;;;;
2022/08/19 13:00:42;;;;;;;1;1;;;;;;;29.47;54.24805;933.668;;;;
2022/08/19 13:03:07;;;;;;;1.1;1;;;;;;;28.68;55.60547;933.7687;;;;
2022/08/19 13:05:36;;;;;;;1.3;1.2;;;;;;;27.96;58.99609;933.8697;;;;
2022/08/19 13:08:01;;;;;;;1.2;1.1;;;;;;;28.19;58.09863;933.8956;;;;
2022/08/19 13:10:27;;;;;;;3.5;2.2;;;;;;;27.52;58.76074;933.8854;;;;
2022/08/19 13:12:52;;;;;;;3.3;2.3;;;;;;;26.93;62.47461;933.9355;;;;
2022/08/19 13:15:23;;;;;;;5.5;3;;;;;;;26.34;62.83203;933.8625;;;;
2022/08/19 13:17:53;;;;;;;6.6;2.9;;;;;;;26.4;62.15332;933.8886;;;;
2022/08/19 13:20:21;;;;;;;1.2;0.7;;;;;;;26.47;61.35645;933.9519;;;;
2022/08/19 13:22:48;;;;;;;1.7;0.9;;;;;;;26.18;62.58301;933.9255;;;;
2022/08/19 13:25:17;;;;;;;3.4;1.4;;;;;;;25.64;64.54102;933.9778;;;;
2022/08/19 13:27:41;;;;;;;2.8;1.7;;;;;;;24.22;69.57715;934.1536;;;;
2022/08/19 13:36:29;;;;;;;2.5;1.2;;;;;;;23.2;71.44043;934.0995;;;;
2022/08/19 13:38:58;;;;;;;3.4;1.7;;;;;;;23.25;73.14063;934.098;;;;
2022/08/19 13:41:23;;;;;;;3;1.2;;;;;;;22.73;74.8623;934.0909;;;;
2022/08/19 13:43:50;;;;;;;1.6;1;;;;;;;23.06;75.63477;934.0842;;;;
2022/08/19 13:46:15;;;;;;;1.3;1;;;;;;;23;75.13281;934.1231;;;;
2022/08/19 13:48:42;;;;;;;2.3;1.3;;;;;;;22.25;78.86426;934.1733;;;;
2022/08/19 13:51:09;;;;;;;3.6;1.5;;;;;;;21.95;80.67285;934.1719;;;;
2022/08/19 13:53:37;;;;;;;2.7;1.1;;;;;;;21.9;82.43457;934.1894;;;;
2022/08/19 13:56:00;;;;;;;1.4;0.9;;;;;;;22.24;80.19922;934.2086;;;;
2022/08/19 13:58:27;;;;;;;3.2;1.3;;;;;;;22.32;79.8252;934.207;;;;
2022/08/19 14:00:52;;;;;;;2.4;0.9;;;;;;;22.56;78.98926;934.1725;;;;
2022/08/19 14:03:20;;;;;;;2.5;1;;;;;;;22.48;78.82227;934.1453;;;;
2022/08/19 14:05:49;;;;;;;2.8;1.2;;;;;;;22.52;81.59766;934.1299;;;;
2022/08/19 14:08:14;;;;;;;2;0.9;;;;;;;22.72;81.50488;934.2034;;;;
2022/08/19 14:10:44;;;;;;;1;0.9;;;;;;;23.13;77.7627;934.142;;;;
2022/08/19 14:13:08;;;;;;;2.3;1.4;;;;;;;23.37;75.93555;934.1336;;;;
2022/08/19 14:15:38;;;;;;;4.5;1.9;;;;;;;23.46;75.63379;934.2028;;;;
2022/08/19 14:18:08;;;;;;;2.5;1.3;;;;;;;23.04;80.30762;934.1889;;;;
2022/08/19 14:20:34;;;;;;;3.1;1.8;;;;;;;23.55;78.08203;934.192;;;;
2022/08/19 14:22:59;;;;;;;1.8;1.2;;;;;;;23.77;76.22559;934.2686;;;;
2022/08/19 14:25:27;;;;;;;1.6;1.1;;;;;;;23.6;76.45605;934.2549;;;;
2022/08/19 14:27:52;;;;;;;1.4;0.9;;;;;;;23.57;77.36914;934.2238;;;;
2022/08/19 14:30:23;;;;;;;1.7;0.8;;;;;;;23.72;75.62988;934.2629;;;;
2022/08/19 14:32:51;;;;;;;2;1.2;;;;;;;23.58;76.14648;934.2619;;;;
2022/08/19 14:35:16;;;;;;;1.1;1;;;;;;;23.17;79.37891;934.2597;;;;
2022/08/19 14:37:44;;;;;;;1.2;0.9;;;;;;;22.71;79.68359;934.327;;;;
2022/08/19 14:40:08;;;;;;;1;0.9;;;;;;;22.71;78.2168;934.3611;;;;
2022/08/19 14:42:40;;;;;;;0.6;0.5;;;;;;;22;80.00293;934.3969;;;;
2022/08/19 14:45:09;;;;;;;0.7;0.7;;;;;;;21.9;80.32324;934.4214;;;;
2022/08/19 14:47:40;;;;;;;0.5;0.5;;;;;;;22.11;79.65723;934.5466;;;;
2022/08/19 14:50:11;;;;;;;1.1;0.7;;;;;;;21.33;79.91797;934.6331;;;;
2022/08/19 14:52:46;;;;;;;1.6;0.7;;;;;;;21.52;80.44238;934.6489;;;;
2022/08/19 14:55:10;;;;;;;1;0.8;;;;;;;21.27;80.74902;934.6831;;;;
2022/08/19 14:57:39;;;;;;;0.8;0.6;;;;;;;21.12;82.82617;934.808;;;;
2022/08/19 15:00:13;;;;;;;1.1;0.6;;;;;;;21;82.29004;934.8;;;;
2022/08/19 15:02:37;;;;;;;1.1;0.6;;;;;;;21.02;82.96191;934.8381;;;;
2022/08/19 15:05:09;;;;;;;2.2;0.8;;;;;;;20.78;84.93652;934.819;;;;
2022/08/19 15:07:34;;;;;;;3.6;0.9;;;;;;;20.72;85.56836;934.8309;;;;
2022/08/19 15:09:59;;;;;;;0.6;0.6;;;;;;;20.64;85.0625;934.9023;;;;
2022/08/19 15:12:31;;;;;;;1;0.5;;;;;;;20.83;84.28027;934.8885;;;;
2022/08/19 15:14:56;;;;;;;0.6;0.3;;;;;;;20.66;84.36621;934.9225;;;;
2022/08/19 15:17:23;;;;;;;0.5;0.4;;;;;;;20.64;85.70508;934.9533;;;;
2022/08/19 15:19:48;;;;;;;0.7;0.7;;;;;;;20.16;86.27734;934.9344;;;;
2022/08/19 15:22:17;;;;;;;0.6;0.6;;;;;;;20.44;85.51465;934.988;;;;
2022/08/19 15:24:45;;;;;;;0.6;0.6;;;;;;;20.56;84.13477;934.9033;;;;
2022/08/19 15:27:07;;;;;;;1;0.7;;;;;;;20.4;85.83398;934.9419;;;;
2022/08/19 15:29:35;;;;;;;1.6;0.7;;;;;;;20.37;87.3457;934.9729;;;;
2022/08/19 15:31:59;;;;;;;0.9;0.5;;;;;;;20.4;85.68066;935.0173;;;;
2022/08/19 15:34:27;;;;;;;0.8;0.8;;;;;;;20.29;88.04199;934.983;;;;
2022/08/19 15:36:52;;;;;;;1.8;0.8;;;;;;;20.33;88.19043;934.9548;;;;
2022/08/19 15:39:23;;;;;;;1.2;0.6;;;;;;;20.28;88.55371;935.0148;;;;
2022/08/19 15:41:51;;;;;;;0.7;0.5;;;;;;;20.25;91.54785;935.0563;;;;
2022/08/19 15:44:17;;;;;;;0.9;0.6;;;;;;;20.11;90.82031;935.1451;;;;
2022/08/19 15:46:44;;;;;;;0.7;0.7;;;;;;;20.05;90.30566;935.1367;;;;
2022/08/19 15:49:08;;;;;;;0.8;0.8;;;;;;;20.09;90.41797;935.1453;;;;
2022/08/19 15:51:37;;;;;;;1.3;0.7;;;;;;;20.17;88.2998;935.1869;;;;
2022/08/19 15:54:01;;;;;;;1;0.8;;;;;;;20.07;89.94531;935.1152;;;;
2022/08/19 16:06:24;;;;;;;0.9;0.8;;;;;;;20.35;88.39258;935.1683;;;;
2022/08/19 16:06:28;;;;;;;0.9;0.9;;;;;;;20.31;87.24121;935.2659;;;;
2022/08/19 16:08:48;;;;;;;1.2;1.1;;;;;;;20.45;87.59375;935.356;;;;
2022/08/19 16:11:16;;;;;;;0.8;0.8;;;;;;;20.53;86.68848;935.3514;;;;
2022/08/19 16:13:41;;;;;;;0.8;0.8;;;;;;;20.2;86.34473;935.4423;;;;
2022/08/19 16:16:10;;;;;;;2.6;1.3;;;;;;;20.06;87.0166;935.3845;;;;
2022/08/19 16:18:37;;;;;;;1.5;1;;;;;;;20.28;88.35547;935.4417;;;;
2022/08/19 16:21:03;;;;;;;1.3;1.2;;;;;;;20.25;87.46094;935.4921;;;;
2022/08/19 16:23:28;;;;;;;1.3;1.2;;;;;;;20.17;87.51855;935.5248;;;;
2022/08/19 16:25:56;;;;;;;2.3;1.4;;;;;;;20.08;87.71973;935.5505;;;;
2022/08/19 16:28:22;;;;;;;1.6;1.5;;;;;;;20;90.51563;935.5648;;;;